Time;durP1;ratioP1;P1;durP2;ratioP2;P2;SDS_P1;SDS_P2;PMS_P1;PMS_P2;Temp;Humidity;BMP_temperature;BMP_pressure;BME280_temperature;BME280_humidity;BME280_pressure;Samples;Min_cycle;Max_cycle;Signal;HPM_P1;HPM_P2
2023/08/04 00:00:13;;;;;;;14.10;5.50;;;;;;;16.56;74.46;100939.81;5072849;28;20035;-77
2023/08/04 00:02:39;;;;;;;13.52;5.30;;;;;;;16.55;74.72;100936.19;5072938;28;20060;-77
2023/08/04 00:05:06;;;;;;;11.35;4.95;;;;;;;16.53;74.80;100934.78;5070978;28;20028;-77
2023/08/04 00:07:35;;;;;;;14.13;5.05;;;;;;;16.53;74.40;100940.41;5068267;28;20039;-77
2023/08/04 00:10:02;;;;;;;10.93;5.18;;;;;;;16.53;74.46;100940.41;5072526;28;20028;-78
2023/08/04 00:12:27;;;;;;;13.68;5.28;;;;;;;16.46;74.61;100940.72;5071795;28;20446;-77
2023/08/04 00:14:53;;;;;;;10.27;5.20;;;;;;;16.48;74.54;100946.88;5072462;28;20131;-77
2023/08/04 00:17:18;;;;;;;12.30;5.25;;;;;;;16.52;74.53;100947.13;5072561;28;20049;-77
2023/08/04 00:19:44;;;;;;;11.60;5.47;;;;;;;16.51;74.46;100943.50;5071796;28;20427;-77
2023/08/04 00:22:09;;;;;;;13.52;5.35;;;;;;;16.47;74.44;100952.78;5066857;28;20020;-77
2023/08/04 00:24:35;;;;;;;11.32;5.25;;;;;;;16.51;74.30;100951.06;5064206;28;20043;-77
2023/08/04 00:27:01;;;;;;;11.23;5.50;;;;;;;16.48;74.47;100960.06;5071498;28;20041;-77
2023/08/04 00:29:27;;;;;;;10.90;5.38;;;;;;;16.45;74.53;100950.25;5072368;28;20027;-77
2023/08/04 00:31:52;;;;;;;12.43;5.82;;;;;;;16.45;74.14;100956.69;5072315;28;20029;-77
2023/08/04 00:34:18;;;;;;;13.75;5.28;;;;;;;16.40;74.46;100953.94;5071410;28;20605;-77
2023/08/04 00:36:45;;;;;;;14.93;6.20;;;;;;;16.39;74.46;100957.88;5072091;28;20460;-77
2023/08/04 00:39:10;;;;;;;13.13;5.63;;;;;;;16.41;74.43;100957.56;5066564;28;20534;-77
2023/08/04 00:41:36;;;;;;;14.75;5.88;;;;;;;16.43;74.46;100958.97;5065866;28;20032;-77
2023/08/04 00:44:02;;;;;;;12.43;6.38;;;;;;;16.38;74.54;100970.19;5071668;28;20028;-77
2023/08/04 00:46:29;;;;;;;11.35;5.60;;;;;;;16.36;74.77;100969.66;5071370;28;20189;-77
2023/08/04 00:48:55;;;;;;;11.63;5.85;;;;;;;16.30;74.54;100969.94;5071893;28;20024;-77
2023/08/04 00:51:21;;;;;;;12.07;5.97;;;;;;;16.28;74.76;100967.44;5071817;28;20111;-77
2023/08/04 00:53:46;;;;;;;16.23;6.40;;;;;;;16.26;74.71;100975.28;5071468;28;20107;-77
2023/08/04 00:56:12;;;;;;;13.65;6.45;;;;;;;16.22;74.74;100974.19;5069221;28;20373;-77
2023/08/04 00:58:37;;;;;;;15.93;5.88;;;;;;;16.19;74.94;100978.44;5060861;28;20032;-77
2023/08/04 01:01:03;;;;;;;11.80;5.50;;;;;;;16.23;74.71;100973.09;5070925;28;20025;-77
2023/08/04 01:03:28;;;;;;;16.33;6.15;;;;;;;16.23;74.78;100977.81;5071898;28;20028;-77
2023/08/04 01:06:20;;;;;;;13.55;6.30;;;;;;;16.21;74.93;100989.34;5071507;28;20028;-77
2023/08/04 01:08:58;;;;;;;13.70;6.03;;;;;;;16.18;75.14;100981.50;5059630;28;20040;-77
2023/08/04 01:11:30;;;;;;;13.00;5.95;;;;;;;16.13;74.99;100982.38;5071438;28;20044;-78
2023/08/04 01:13:58;;;;;;;11.93;6.32;;;;;;;16.15;74.91;100982.94;5071813;28;20024;-78
2023/08/04 01:16:23;;;;;;;11.48;5.75;;;;;;;16.14;74.72;100984.03;5067735;28;20496;-77
2023/08/04 01:18:49;;;;;;;12.65;5.90;;;;;;;16.16;74.76;100990.19;5051822;28;20040;-77
2023/08/04 01:21:14;;;;;;;11.40;6.30;;;;;;;16.10;74.95;100987.69;5051392;28;20033;-77
2023/08/04 01:23:39;;;;;;;15.15;6.03;;;;;;;16.16;74.91;100992.16;5050512;28;20033;-78
2023/08/04 01:26:06;;;;;;;12.38;6.22;;;;;;;16.13;74.44;100987.97;5051158;28;20033;-77
2023/08/04 01:28:33;;;;;;;13.57;6.18;;;;;;;16.14;74.59;100992.44;5050664;28;20100;-77
2023/08/04 01:31:00;;;;;;;10.15;5.88;;;;;;;16.14;74.45;100989.63;5051403;28;20025;-77
2023/08/04 01:33:26;;;;;;;10.32;5.93;;;;;;;16.11;74.75;100989.38;5050673;28;20056;-77
2023/08/04 01:35:54;;;;;;;14.30;6.25;;;;;;;16.07;74.83;100993.88;5069116;28;20113;-77
2023/08/04 01:38:19;;;;;;;12.15;6.15;;;;;;;16.07;74.95;100994.72;5071128;28;20056;-77
2023/08/04 01:40:45;;;;;;;14.43;6.30;;;;;;;16.08;74.87;100995.56;5071419;28;20067;-77
2023/08/04 01:43:10;;;;;;;12.70;6.53;;;;;;;16.08;75.00;101004.78;5070593;28;20851;-77
2023/08/04 01:45:35;;;;;;;12.80;6.28;;;;;;;16.08;75.03;101002.00;5071550;28;20032;-77
2023/08/04 01:48:01;;;;;;;12.25;5.95;;;;;;;16.10;75.08;101004.50;5071533;28;20128;-78
2023/08/04 01:50:26;;;;;;;12.50;6.25;;;;;;;16.08;75.34;101003.97;5068292;28;20167;-77
2023/08/04 01:52:51;;;;;;;13.73;6.50;;;;;;;16.10;75.05;101005.34;5062680;28;20476;-78
2023/08/04 01:55:17;;;;;;;11.60;5.93;;;;;;;16.07;75.41;101014.34;5056917;28;20468;-78
2023/08/04 01:57:42;;;;;;;11.07;7.03;;;;;;;16.03;75.53;101001.16;5054665;28;20028;-78
2023/08/04 02:00:08;;;;;;;12.43;6.68;;;;;;;16.04;75.53;101005.66;5055457;28;20029;-77
2023/08/04 02:02:33;;;;;;;16.40;6.22;;;;;;;16.05;75.55;101010.13;5055226;28;20033;-78
2023/08/04 02:04:59;;;;;;;14.48;6.18;;;;;;;15.97;75.71;101017.16;5054404;28;20522;-78
2023/08/04 02:07:24;;;;;;;12.63;6.15;;;;;;;16.03;75.71;101009.56;5054868;28;20499;-78
2023/08/04 02:09:49;;;;;;;11.05;6.10;;;;;;;16.02;75.61;101008.72;5054788;28;20025;-78
2023/08/04 02:12:15;;;;;;;10.60;6.13;;;;;;;16.05;75.87;101016.56;5054285;28;20025;-78
2023/08/04 02:14:40;;;;;;;12.20;6.50;;;;;;;16.00;75.89;101015.75;5054664;28;20075;-76
2023/08/04 02:17:05;;;;;;;14.65;6.50;;;;;;;15.97;76.04;101016.31;5054943;28;20056;-77
2023/08/04 02:19:31;;;;;;;12.35;6.88;;;;;;;15.98;75.91;101021.63;5053848;28;20631;-78
2023/08/04 02:21:56;;;;;;;16.73;6.30;;;;;;;15.98;75.93;101018.00;5054787;28;20130;-77
2023/08/04 02:24:22;;;;;;;13.70;6.03;;;;;;;16.01;75.94;101014.63;5054377;28;20033;-78
2023/08/04 02:26:47;;;;;;;13.80;6.50;;;;;;;15.99;75.87;101014.06;5057250;28;20035;-78
2023/08/04 02:29:13;;;;;;;13.63;6.57;;;;;;;15.95;75.88;101020.25;5071695;28;20032;-78
2023/08/04 02:31:39;;;;;;;10.95;6.90;;;;;;;15.95;75.94;101020.25;5074219;28;20089;-78
2023/08/04 02:34:04;;;;;;;12.40;7.00;;;;;;;15.96;75.83;101029.47;5074363;28;20481;-78
2023/08/04 02:36:30;;;;;;;18.10;7.05;;;;;;;15.96;75.76;101026.69;5074486;28;20490;-77
2023/08/04 02:38:55;;;;;;;13.55;6.28;;;;;;;15.98;75.64;101020.78;5073510;28;20028;-78
2023/08/04 02:41:21;;;;;;;14.38;6.47;;;;;;;15.90;75.93;101025.84;5074500;28;20032;-77
2023/08/04 02:43:46;;;;;;;13.77;7.25;;;;;;;15.84;76.04;101029.81;5074027;28;20472;-77
2023/08/04 02:46:12;;;;;;;13.68;5.97;;;;;;;15.90;75.97;101028.66;5069897;28;20028;-78
2023/08/04 02:48:37;;;;;;;11.07;6.28;;;;;;;15.89;75.95;101029.78;5074045;28;20100;-77
2023/08/04 02:51:05;;;;;;;15.13;6.80;;;;;;;15.90;76.05;101033.41;5074018;28;20035;-78
2023/08/04 02:53:31;;;;;;;13.38;6.90;;;;;;;15.85;75.87;101028.66;5073560;28;20036;-77
2023/08/04 02:55:57;;;;;;;13.32;6.00;;;;;;;15.82;76.05;101023.63;5074088;28;20032;-77
2023/08/04 02:58:23;;;;;;;13.57;6.88;;;;;;;15.83;76.03;101024.47;5074413;28;20667;-78
2023/08/04 03:00:49;;;;;;;13.90;6.90;;;;;;;15.82;76.13;101020.84;5073333;28;20032;-78
2023/08/04 03:03:15;;;;;;;15.20;6.88;;;;;;;15.88;76.05;101025.31;5067406;28;20036;-78
2023/08/04 03:05:41;;;;;;;10.32;5.93;;;;;;;15.82;76.03;101034.81;5072941;28;20089;-78
2023/08/04 03:08:06;;;;;;;15.85;6.75;;;;;;;15.84;76.17;101026.16;5073282;28;20020;-78
2023/08/04 03:10:31;;;;;;;14.55;6.88;;;;;;;15.85;76.01;101039.03;5073781;28;20472;-78
2023/08/04 03:12:56;;;;;;;12.50;5.78;;;;;;;15.88;75.75;101044.91;5073761;28;20031;-78
2023/08/04 03:15:22;;;;;;;13.13;7.13;;;;;;;15.87;75.97;101032.00;5072722;28;20041;-78
2023/08/04 03:17:47;;;;;;;11.68;6.68;;;;;;;15.85;75.91;101037.06;5073736;28;20035;-78
2023/08/04 03:20:12;;;;;;;11.63;6.65;;;;;;;15.82;75.83;101034.00;5063602;28;20515;-77
2023/08/04 03:22:38;;;;;;;12.30;7.18;;;;;;;15.84;76.09;101041.00;5072669;28;20030;-78
2023/08/04 03:25:04;;;;;;;12.85;5.90;;;;;;;15.82;76.05;101043.22;5073806;28;20111;-77
2023/08/04 03:27:29;;;;;;;12.45;6.43;;;;;;;15.77;76.31;101046.03;5073812;28;20021;-77
2023/08/04 03:29:54;;;;;;;13.77;6.20;;;;;;;15.78;76.31;101053.31;5072717;28;20028;-78
2023/08/04 03:32:19;;;;;;;11.77;6.93;;;;;;;15.82;76.43;101056.38;5073536;28;20471;-78
2023/08/04 03:34:45;;;;;;;12.52;6.10;;;;;;;15.79;76.61;101048.53;5073250;28;20111;-77
2023/08/04 03:37:10;;;;;;;11.02;7.07;;;;;;;15.78;76.59;101050.50;5070239;28;20039;-77
2023/08/04 03:39:35;;;;;;;13.50;6.60;;;;;;;15.76;76.78;101052.78;5072170;28;20032;-77
2023/08/04 03:42:01;;;;;;;13.75;6.20;;;;;;;15.79;76.80;101054.97;5068278;28;20081;-77
2023/08/04 03:44:26;;;;;;;14.85;6.53;;;;;;;15.78;76.83;101046.88;5073098;28;20480;-77
2023/08/04 03:46:51;;;;;;;11.32;6.35;;;;;;;15.75;76.87;101048.28;5073139;28;20025;-78
2023/08/04 03:49:16;;;;;;;11.57;6.45;;;;;;;15.75;76.78;101050.22;5072072;28;20021;-77
2023/08/04 03:51:42;;;;;;;13.05;6.93;;;;;;;15.76;76.61;101047.19;5073177;28;20047;-77
2023/08/04 03:54:07;;;;;;;14.80;6.57;;;;;;;15.76;76.75;101052.78;5072935;28;20035;-77
2023/08/04 03:56:32;;;;;;;14.13;6.45;;;;;;;15.75;76.61;101053.88;5069072;28;20025;-77
2023/08/04 03:58:58;;;;;;;10.02;6.38;;;;;;;15.77;76.45;101056.41;5068708;28;20063;-77
2023/08/04 04:01:23;;;;;;;13.93;6.63;;;;;;;15.71;76.60;101058.34;5072871;28;20029;-77
2023/08/04 04:03:48;;;;;;;14.77;6.82;;;;;;;15.69;76.78;101055.00;5071889;28;20032;-77
2023/08/04 04:06:14;;;;;;;12.70;6.35;;;;;;;15.67;76.95;101055.28;5072762;28;20494;-77
2023/08/04 04:08:39;;;;;;;10.48;6.30;;;;;;;15.69;76.76;101061.44;5072812;28;20769;-78
2023/08/04 04:11:04;;;;;;;11.35;6.50;;;;;;;15.69;76.66;101063.41;5072138;28;20036;-78
2023/08/04 04:13:29;;;;;;;12.40;7.10;;;;;;;15.70;76.82;101054.72;5061514;28;20090;-78
2023/08/04 04:15:55;;;;;;;8.95;6.13;;;;;;;15.66;76.72;101056.41;5051953;28;20053;-77
2023/08/04 04:18:20;;;;;;;10.40;6.10;;;;;;;15.67;76.91;101065.63;5051536;28;20035;-77
2023/08/04 04:20:45;;;;;;;13.35;6.57;;;;;;;15.68;76.88;101067.34;5052453;28;20045;-77
2023/08/04 04:23:11;;;;;;;12.63;6.13;;;;;;;15.68;76.84;101070.13;5052286;28;20033;-78
2023/08/04 04:25:36;;;;;;;14.70;6.72;;;;;;;15.66;76.78;101069.56;5052067;28;20064;-77
2023/08/04 04:28:01;;;;;;;12.75;7.05;;;;;;;15.62;76.83;101071.22;5051995;28;20199;-78
2023/08/04 04:30:27;;;;;;;13.23;6.45;;;;;;;15.63;76.84;101078.47;5060733;28;20115;-78
2023/08/04 04:32:52;;;;;;;9.77;6.78;;;;;;;15.62;77.08;101074.00;5071835;28;20028;-78
2023/08/04 04:35:17;;;;;;;12.10;6.78;;;;;;;15.58;76.80;101075.69;5072561;28;20028;-77
2023/08/04 04:37:43;;;;;;;13.93;6.45;;;;;;;15.59;77.10;101080.16;5072931;28;20025;-78
2023/08/04 04:40:08;;;;;;;11.05;7.18;;;;;;;15.60;76.86;101079.03;5071278;28;20629;-77
2023/08/04 04:42:33;;;;;;;11.07;6.85;;;;;;;15.57;77.15;101071.22;5072132;28;20532;-77
2023/08/04 04:45:00;;;;;;;10.18;6.78;;;;;;;15.51;77.24;101077.94;5070415;28;20025;-77
2023/08/04 04:47:25;;;;;;;10.48;6.90;;;;;;;15.49;77.49;101080.19;5063168;28;20094;-77
2023/08/04 04:49:50;;;;;;;13.00;6.85;;;;;;;15.52;77.24;101088.84;5071975;28;20153;-77
2023/08/04 04:52:31;;;;;;;15.48;6.90;;;;;;;15.55;77.43;101084.66;5072279;28;20021;-77
2023/08/04 04:54:57;;;;;;;10.43;6.97;;;;;;;15.46;77.44;101093.59;5072205;28;20051;-78
2023/08/04 04:57:22;;;;;;;12.35;7.18;;;;;;;15.48;77.51;101096.13;5071768;28;20028;-78
2023/08/04 04:59:48;;;;;;;12.40;7.10;;;;;;;15.49;77.50;101095.00;5071362;28;20025;-77
2023/08/04 05:02:14;;;;;;;10.85;7.13;;;;;;;15.48;77.13;101087.72;5067584;28;20481;-77
2023/08/04 05:04:39;;;;;;;13.40;7.38;;;;;;;15.46;77.75;101096.41;5071499;28;20029;-77
2023/08/04 05:07:05;;;;;;;8.80;6.68;;;;;;;15.49;77.85;101108.16;5070955;28;20016;-77
2023/08/04 05:09:30;;;;;;;12.13;7.72;;;;;;;15.51;77.76;101108.72;5071850;28;20074;-78
2023/08/04 05:11:55;;;;;;;13.00;7.05;;;;;;;15.48;77.87;101101.72;5071675;28;20055;-77
2023/08/04 05:14:21;;;;;;;11.38;7.55;;;;;;;15.55;78.03;101116.25;5071365;28;20032;-77
2023/08/04 05:16:46;;;;;;;12.45;7.20;;;;;;;15.53;78.44;101117.69;5071766;28;20080;-78
2023/08/04 05:19:11;;;;;;;13.55;7.47;;;;;;;15.54;78.44;101113.75;5067980;28;20032;-77
2023/08/04 05:21:36;;;;;;;12.45;6.90;;;;;;;15.56;78.86;101109.56;5071138;28;20036;-77
2023/08/04 05:24:02;;;;;;;13.43;7.50;;;;;;;15.59;78.53;101122.97;5071580;28;20127;-78
2023/08/04 05:26:27;;;;;;;12.27;6.93;;;;;;;15.59;78.98;101120.16;5071264;28;20033;-77
2023/08/04 05:28:52;;;;;;;12.63;7.40;;;;;;;15.65;78.88;101123.84;5070147;28;20028;-77
2023/08/04 05:31:18;;;;;;;14.38;7.82;;;;;;;15.66;79.37;101126.38;5072345;28;20473;-77
2023/08/04 05:33:43;;;;;;;14.57;6.97;;;;;;;15.68;79.17;101131.69;5071278;28;20028;-77
2023/08/04 05:36:08;;;;;;;11.48;7.25;;;;;;;15.71;79.28;101136.72;5066851;28;20040;-77
2023/08/04 05:38:34;;;;;;;12.50;7.15;;;;;;;15.79;79.21;101135.31;5071495;28;20027;-77
2023/08/04 05:41:01;;;;;;;13.82;7.75;;;;;;;15.76;79.48;101128.34;5071721;28;20039;-77
2023/08/04 05:43:27;;;;;;;11.85;7.85;;;;;;;15.83;79.47;101125.22;5070818;28;20028;-77
2023/08/04 05:45:52;;;;;;;12.13;7.32;;;;;;;15.82;79.88;101132.78;5071164;28;20029;-77
2023/08/04 05:48:17;;;;;;;11.32;8.48;;;;;;;15.81;80.44;101124.69;5071142;28;20020;-77
2023/08/04 05:50:43;;;;;;;15.35;8.85;;;;;;;15.83;80.25;101140.06;5067752;28;20029;-77
2023/08/04 05:53:09;;;;;;;15.15;8.25;;;;;;;15.85;80.71;101135.03;5068030;28;20035;-77
2023/08/04 05:55:35;;;;;;;13.25;7.65;;;;;;;15.89;80.36;101144.53;5071485;28;20107;-77
2023/08/04 05:58:01;;;;;;;13.90;7.90;;;;;;;15.93;80.72;101142.03;5070810;28;20483;-77
2023/08/04 06:00:26;;;;;;;12.55;8.25;;;;;;;15.93;80.85;101151.25;5071375;28;20020;-77
2023/08/04 06:02:52;;;;;;;12.77;7.80;;;;;;;15.94;80.94;101143.69;5069903;28;20112;-77
2023/08/04 06:05:17;;;;;;;14.50;8.75;;;;;;;15.97;81.24;101157.13;5071311;28;20380;-77
2023/08/04 06:07:43;;;;;;;11.35;8.10;;;;;;;15.99;81.22;101143.69;5068268;28;20028;-78
2023/08/04 06:10:08;;;;;;;15.65;8.45;;;;;;;16.02;81.50;101153.47;5059968;28;20472;-77
2023/08/04 06:12:34;;;;;;;13.68;8.43;;;;;;;16.07;81.46;101156.25;5051647;28;20028;-77
2023/08/04 06:15:00;;;;;;;12.38;7.88;;;;;;;16.11;81.37;101148.97;5050812;28;20580;-76
2023/08/04 06:17:26;;;;;;;18.73;8.00;;;;;;;16.16;81.43;101154.59;5049901;28;20528;-76
2023/08/04 06:19:51;;;;;;;16.77;8.70;;;;;;;16.20;81.36;101150.09;5051077;28;20084;-76
2023/08/04 06:22:17;;;;;;;14.35;8.82;;;;;;;16.25;81.31;101158.47;5050656;28;20025;-77
2023/08/04 06:24:42;;;;;;;13.80;7.88;;;;;;;16.35;81.33;101168.84;5050090;28;20059;-78
2023/08/04 06:27:08;;;;;;;14.48;8.70;;;;;;;16.43;80.77;101171.88;5050805;28;20025;-77
2023/08/04 06:29:34;;;;;;;14.52;8.13;;;;;;;16.54;80.82;101172.66;5054858;28;20060;-78
2023/08/04 06:32:00;;;;;;;13.45;8.00;;;;;;;16.69;80.72;101172.63;5070149;28;20036;-78
2023/08/04 06:34:25;;;;;;;13.45;8.38;;;;;;;16.80;80.98;101179.06;5070801;28;20392;-78
2023/08/04 06:36:50;;;;;;;13.05;8.02;;;;;;;16.82;80.85;101189.97;5070817;28;20041;-77
2023/08/04 06:39:16;;;;;;;11.73;7.60;;;;;;;16.82;80.44;101184.38;5067157;28;20025;-79
2023/08/04 06:41:42;;;;;;;9.38;7.20;;;;;;;16.88;80.50;101189.69;5054581;28;20110;-78
2023/08/04 06:44:07;;;;;;;13.48;8.10;;;;;;;16.96;80.65;101187.41;5054105;28;20512;-78
2023/08/04 06:46:33;;;;;;;12.95;7.57;;;;;;;17.03;80.53;101185.13;5053753;28;20435;-78
2023/08/04 06:48:58;;;;;;;11.02;7.20;;;;;;;17.13;80.63;101191.53;5067878;28;20031;-78
2023/08/04 06:51:23;;;;;;;13.05;7.47;;;;;;;17.28;80.28;101187.78;5074502;28;20071;-77
2023/08/04 06:53:49;;;;;;;9.38;7.00;;;;;;;17.45;80.92;101190.22;5073496;28;20062;-78
2023/08/04 06:56:14;;;;;;;14.43;6.55;;;;;;;17.54;79.52;101202.50;5074156;28;20107;-78
2023/08/04 06:58:39;;;;;;;11.07;6.45;;;;;;;17.59;79.32;101188.41;5074196;28;20032;-78
2023/08/04 07:01:05;;;;;;;11.52;5.88;;;;;;;17.59;78.60;101196.00;5073409;28;20074;-78
2023/08/04 07:03:30;;;;;;;8.50;5.45;;;;;;;17.60;78.92;101200.47;5074178;28;20025;-78
2023/08/04 07:05:55;;;;;;;9.23;5.57;;;;;;;17.59;78.83;101198.81;5070735;28;20698;-78
2023/08/04 07:08:21;;;;;;;12.07;5.85;;;;;;;17.58;78.79;101208.34;5072328;28;20038;-78
2023/08/04 07:10:47;;;;;;;10.95;5.65;;;;;;;17.52;78.12;101207.53;5074063;28;20056;-78
2023/08/04 07:13:12;;;;;;;10.07;5.78;;;;;;;17.56;77.99;101216.22;5073474;28;20071;-78
2023/08/04 07:15:37;;;;;;;9.13;4.78;;;;;;;17.58;78.05;101217.63;5070917;28;20059;-78
2023/08/04 07:18:03;;;;;;;10.02;4.63;;;;;;;17.58;77.52;101219.59;5072715;28;20022;-78
2023/08/04 07:20:28;;;;;;;8.25;4.53;;;;;;;17.58;77.49;101222.41;5073295;28;20020;-78
2023/08/04 07:22:54;;;;;;;8.93;5.05;;;;;;;17.55;77.35;101215.38;5073798;28;20052;-78
2023/08/04 07:25:20;;;;;;;11.65;5.10;;;;;;;17.58;77.15;101226.03;5073902;28;20451;-78
2023/08/04 07:27:45;;;;;;;6.32;4.35;;;;;;;17.66;77.37;101211.38;5070480;28;20061;-78
2023/08/04 07:30:15;;;;;;;7.53;4.10;;;;;;;17.73;77.34;101224.25;5072520;28;20081;-78
2023/08/04 07:32:40;;;;;;;8.38;4.28;;;;;;;17.75;77.18;101220.03;5073783;28;20025;-78
2023/08/04 07:35:06;;;;;;;8.25;4.15;;;;;;;17.71;76.63;101221.72;5072817;28;20028;-78
2023/08/04 07:37:31;;;;;;;8.43;4.15;;;;;;;17.70;76.42;101220.06;5073567;28;20024;-78
2023/08/04 07:39:56;;;;;;;8.05;4.05;;;;;;;17.71;77.26;101229.31;5073306;28;20047;-78
2023/08/04 07:42:22;;;;;;;6.18;3.80;;;;;;;17.63;76.19;101222.34;5072603;28;20497;-78
2023/08/04 07:44:47;;;;;;;8.52;3.47;;;;;;;17.61;76.52;101219.00;5071168;28;20028;-78
2023/08/04 07:47:12;;;;;;;10.60;4.13;;;;;;;17.60;77.04;101232.19;5062051;28;20032;-78
2023/08/04 07:49:38;;;;;;;10.35;3.92;;;;;;;17.60;76.96;101235.00;5071869;28;20078;-78
2023/08/04 07:52:03;;;;;;;9.32;3.55;;;;;;;17.57;77.28;101232.78;5072547;28;20648;-78
2023/08/04 07:54:29;;;;;;;5.63;3.72;;;;;;;17.56;77.23;101228.28;5072946;28;20113;-79
2023/08/04 07:56:54;;;;;;;8.20;4.10;;;;;;;17.56;76.98;101233.06;5072412;28;20032;-78
2023/08/04 07:59:19;;;;;;;8.65;3.65;;;;;;;17.55;76.91;101239.81;5072703;28;20032;-78
2023/08/04 08:01:44;;;;;;;5.47;3.22;;;;;;;17.56;76.72;101241.47;5073054;28;20448;-78
2023/08/04 08:04:10;;;;;;;5.95;3.33;;;;;;;17.58;76.15;101242.03;5072109;28;20028;-78
2023/08/04 08:06:36;;;;;;;5.55;3.10;;;;;;;17.60;76.20;101237.78;5062756;28;20017;-78
2023/08/04 08:09:01;;;;;;;5.78;2.92;;;;;;;17.59;75.15;101244.53;5072630;28;20622;-78
2023/08/04 08:11:26;;;;;;;5.20;2.67;;;;;;;17.63;74.92;101250.41;5072109;28;20035;-78
2023/08/04 08:13:52;;;;;;;5.05;2.85;;;;;;;17.63;75.14;101242.84;5072722;28;20021;-78
2023/08/04 08:16:17;;;;;;;5.20;3.10;;;;;;;17.66;75.38;101249.84;5071370;28;20485;-78
2023/08/04 08:18:43;;;;;;;5.30;3.50;;;;;;;17.66;75.15;101244.22;5072272;28;20024;-78
2023/08/04 08:21:09;;;;;;;6.00;3.40;;;;;;;17.74;74.78;101246.41;5072874;28;20094;-77
2023/08/04 08:23:35;;;;;;;4.75;2.95;;;;;;;17.84;73.14;101239.91;5071587;28;20563;-78
2023/08/04 08:26:03;;;;;;;5.10;2.38;;;;;;;17.96;72.15;101247.97;5066773;28;20127;-78
2023/08/04 08:28:28;;;;;;;7.45;2.67;;;;;;;18.12;72.62;101252.34;5072548;28;20066;-78
2023/08/04 08:30:54;;;;;;;2.90;2.10;;;;;;;18.20;72.38;101262.94;5071938;28;20028;-78
2023/08/04 08:33:19;;;;;;;7.82;3.40;;;;;;;18.22;71.99;101257.84;5072102;28;20047;-78
2023/08/04 08:35:45;;;;;;;6.15;3.30;;;;;;;18.23;71.95;101255.88;5072286;28;20103;-77
2023/08/04 08:38:10;;;;;;;8.15;2.63;;;;;;;18.27;72.58;101260.59;5071662;28;20480;-77
2023/08/04 08:40:36;;;;;;;6.47;2.53;;;;;;;18.30;72.97;101268.44;5072967;28;20039;-77
2023/08/04 08:43:01;;;;;;;3.70;2.60;;;;;;;18.29;72.04;101272.41;5063875;28;20053;-78
2023/08/04 08:45:28;;;;;;;7.38;2.58;;;;;;;18.28;72.33;101270.72;5053914;28;20473;-77
2023/08/04 08:47:55;;;;;;;4.28;2.28;;;;;;;18.24;70.82;101272.47;5052189;28;20461;-78
2023/08/04 08:50:23;;;;;;;4.40;2.40;;;;;;;18.24;71.00;101271.63;5055925;28;20025;-77
2023/08/04 08:52:57;;;;;;;3.70;2.20;;;;;;;18.26;71.64;101280.59;5051242;28;20381;-78
2023/08/04 08:55:22;;;;;;;4.13;2.58;;;;;;;18.24;73.12;101280.88;5051900;28;20108;-78
2023/08/04 08:57:49;;;;;;;4.72;2.63;;;;;;;18.25;73.41;101279.75;5051661;28;20116;-78
2023/08/04 09:00:14;;;;;;;6.25;3.03;;;;;;;18.28;73.64;101281.97;5051199;28;20017;-77
2023/08/04 09:02:40;;;;;;;7.15;2.97;;;;;;;18.28;73.12;101284.78;5051860;28;20051;-78
2023/08/04 09:05:05;;;;;;;4.78;2.65;;;;;;;18.29;72.80;101277.19;5051712;28;20051;-78
2023/08/04 09:07:31;;;;;;;5.72;2.70;;;;;;;18.29;72.22;101282.81;5054043;28;20127;-78
2023/08/04 09:09:56;;;;;;;6.93;3.38;;;;;;;18.30;72.17;101295.72;5054006;28;20029;-77
2023/08/04 09:12:25;;;;;;;5.82;3.13;;;;;;;18.28;72.86;101290.41;5051568;28;20036;-78
2023/08/04 09:14:55;;;;;;;4.00;2.80;;;;;;;18.27;71.94;101290.69;5050569;28;20033;-77
2023/08/04 09:17:38;;;;;;;5.97;2.70;;;;;;;18.29;72.58;101286.44;5051308;28;20456;-77
2023/08/04 09:20:28;;;;;;;5.63;2.45;;;;;;;18.33;72.69;101298.78;5050541;28;20527;-78
2023/08/04 09:22:53;;;;;;;4.85;2.83;;;;;;;18.31;75.08;101306.69;5051324;28;20017;-78
2023/08/04 09:25:19;;;;;;;5.47;3.10;;;;;;;18.30;75.59;101304.16;5051675;28;20041;-78
2023/08/04 09:27:49;;;;;;;4.00;3.08;;;;;;;18.26;76.41;101300.25;5051112;28;20033;-78
2023/08/04 09:30:15;;;;;;;4.90;3.00;;;;;;;18.23;77.45;101300.84;5051641;28;20032;-78
2023/08/04 09:32:43;;;;;;;5.00;2.90;;;;;;;18.22;77.54;101300.00;5051595;28;20507;-78
2023/08/04 09:35:08;;;;;;;5.60;3.20;;;;;;;18.20;78.45;101298.63;5050791;28;20025;-77
2023/08/04 09:37:35;;;;;;;3.92;3.58;;;;;;;18.29;78.93;101300.50;5051242;28;20112;-78
2023/08/04 09:40:12;;;;;;;7.43;3.40;;;;;;;18.29;78.50;101294.88;5051212;28;20029;-77
2023/08/04 09:42:38;;;;;;;5.60;3.00;;;;;;;18.38;78.47;101307.16;5053798;28;20017;-78
2023/08/04 09:45:04;;;;;;;4.43;3.28;;;;;;;18.42;78.28;101303.75;5051244;28;20047;-78
2023/08/04 09:47:30;;;;;;;5.30;3.17;;;;;;;18.44;77.10;101305.16;5051475;28;20029;-78
2023/08/04 09:49:55;;;;;;;3.50;2.78;;;;;;;18.49;76.42;101307.91;5050442;28;20017;-78
2023/08/04 09:52:25;;;;;;;5.18;2.65;;;;;;;18.55;77.15;101306.75;5051099;28;20029;-78
2023/08/04 09:54:54;;;;;;;5.18;2.72;;;;;;;18.59;76.02;101305.03;5050842;28;20021;-78
2023/08/04 09:57:22;;;;;;;5.18;2.83;;;;;;;18.69;76.44;101298.44;5051354;28;20033;-78
2023/08/04 09:59:51;;;;;;;8.10;2.90;;;;;;;18.81;76.85;101303.69;5052495;28;20104;-78
2023/08/04 10:02:18;;;;;;;4.43;2.38;;;;;;;18.91;76.35;101302.75;5066921;28;20032;-78
2023/08/04 10:04:50;;;;;;;6.93;2.92;;;;;;;18.93;75.11;101306.94;5071187;28;20029;-78
2023/08/04 10:07:19;;;;;;;5.45;2.38;;;;;;;18.91;73.51;101309.22;5071090;28;20388;-78
2023/08/04 10:09:47;;;;;;;4.80;2.00;;;;;;;18.92;73.96;101305.25;5070480;28;20028;-78
2023/08/04 10:12:13;;;;;;;4.38;2.40;;;;;;;18.86;73.86;101312.06;5070990;28;20540;-77
2023/08/04 10:14:39;;;;;;;4.05;2.20;;;;;;;18.81;73.90;101310.16;5074187;28;20055;-78
2023/08/04 10:17:05;;;;;;;6.13;2.33;;;;;;;18.78;75.55;101316.38;5071594;28;20484;-78
2023/08/04 10:19:32;;;;;;;4.30;1.80;;;;;;;18.75;76.87;101316.16;5072894;28;20028;-77
2023/08/04 10:22:09;;;;;;;2.35;2.03;;;;;;;18.70;76.52;101318.97;5074843;28;20048;-77
2023/08/04 10:24:41;;;;;;;5.15;2.28;;;;;;;18.66;77.12;101313.09;5071441;28;20029;-78
2023/08/04 10:27:13;;;;;;;4.50;2.10;;;;;;;18.64;76.56;101304.97;5074384;28;20468;-78
2023/08/04 10:29:40;;;;;;;3.60;1.92;;;;;;;18.59;76.68;101302.22;5074660;28;20485;-78
2023/08/04 10:32:08;;;;;;;2.58;2.08;;;;;;;18.67;77.01;101308.28;5073949;28;20037;-78
2023/08/04 10:34:42;;;;;;;4.18;2.20;;;;;;;18.79;78.98;101309.63;5074345;28;20069;-78
2023/08/04 10:37:14;;;;;;;5.22;2.60;;;;;;;18.98;79.03;101309.72;5064449;28;20188;-78
2023/08/04 10:39:55;;;;;;;4.85;2.40;;;;;;;19.17;79.28;101320.16;5072712;28;20116;-78
2023/08/04 10:42:23;;;;;;;4.75;2.08;;;;;;;19.12;74.88;101312.63;5074683;28;20032;-77
2023/08/04 10:44:52;;;;;;;6.95;2.28;;;;;;;19.11;75.53;101319.41;5073475;28;20029;-77
2023/08/04 10:47:46;;;;;;;5.82;2.40;;;;;;;19.17;76.60;101323.81;5070193;28;20426;-78
2023/08/04 10:50:13;;;;;;;5.47;2.40;;;;;;;19.25;77.08;101320.34;5073979;28;20460;-78
2023/08/04 10:52:39;;;;;;;3.63;1.80;;;;;;;19.27;74.10;101328.50;5073677;28;20032;-77
2023/08/04 10:55:07;;;;;;;6.65;2.13;;;;;;;19.24;72.74;101324.28;5074343;28;20079;-78
2023/08/04 10:57:34;;;;;;;6.45;2.00;;;;;;;19.21;71.42;101324.88;5074126;28;20059;-78
2023/08/04 11:00:00;;;;;;;9.57;2.17;;;;;;;19.20;71.41;101328.84;5073322;28;20021;-78
2023/08/04 11:02:26;;;;;;;8.05;2.22;;;;;;;19.26;72.30;101332.47;5073997;28;20484;-77
2023/08/04 11:04:53;;;;;;;4.82;2.22;;;;;;;19.42;72.47;101330.28;5067672;28;20021;-77
2023/08/04 11:07:21;;;;;;;7.40;2.30;;;;;;;19.57;72.91;101332.88;5058797;28;20083;-78
2023/08/04 11:09:47;;;;;;;4.50;2.05;;;;;;;19.68;70.41;101327.97;5053972;28;20366;-78
2023/08/04 11:12:14;;;;;;;4.70;2.00;;;;;;;19.75;68.66;101329.28;5053303;28;20021;-77
2023/08/04 11:14:39;;;;;;;4.65;2.25;;;;;;;19.76;67.72;101332.94;5053736;28;20040;-75